sensor_id;sensor_type;location;lat;lon;timestamp;P1;durP1;ratioP1;P2;durP2;ratioP2
8825;SDS011;4449;50.872;4.714;2023-01-26T00:00:10;80.13;;;26.33;;
8825;SDS011;4449;50.872;4.714;2023-01-26T00:02:38;79.57;;;27.75;;
8825;SDS011;4449;50.872;4.714;2023-01-26T00:05:06;66.93;;;25.65;;
8825;SDS011;4449;50.872;4.714;2023-01-26T00:07:35;69.57;;;25.40;;
8825;SDS011;4449;50.872;4.714;2023-01-26T00:10:10;71.57;;;26.08;;
8825;SDS011;4449;50.872;4.714;2023-01-26T00:12:38;65.75;;;24.73;;
8825;SDS011;4449;50.872;4.714;2023-01-26T00:15:06;61.35;;;23.23;;
8825;SDS011;4449;50.872;4.714;2023-01-26T00:17:34;67.25;;;24.50;;
8825;SDS011;4449;50.872;4.714;2023-01-26T00:20:02;67.20;;;23.17;;
8825;SDS011;4449;50.872;4.714;2023-01-26T00:22:30;65.22;;;22.42;;
8825;SDS011;4449;50.872;4.714;2023-01-26T00:24:59;63.58;;;23.13;;
8825;SDS011;4449;50.872;4.714;2023-01-26T00:27:27;58.55;;;22.35;;
8825;SDS011;4449;50.872;4.714;2023-01-26T00:29:55;51.72;;;21.60;;
8825;SDS011;4449;50.872;4.714;2023-01-26T00:32:23;59.58;;;20.27;;
8825;SDS011;4449;50.872;4.714;2023-01-26T00:34:51;62.38;;;23.45;;
8825;SDS011;4449;50.872;4.714;2023-01-26T00:37:18;60.70;;;23.08;;
8825;SDS011;4449;50.872;4.714;2023-01-26T00:39:46;59.58;;;23.75;;
8825;SDS011;4449;50.872;4.714;2023-01-26T00:42:15;66.22;;;23.55;;
8825;SDS011;4449;50.872;4.714;2023-01-26T00:44:43;65.82;;;25.17;;
8825;SDS011;4449;50.872;4.714;2023-01-26T00:47:11;66.45;;;23.42;;
8825;SDS011;4449;50.872;4.714;2023-01-26T00:49:39;65.00;;;21.58;;
8825;SDS011;4449;50.872;4.714;2023-01-26T00:52:07;64.75;;;24.02;;
8825;SDS011;4449;50.872;4.714;2023-01-26T00:54:35;59.92;;;23.90;;
8825;SDS011;4449;50.872;4.714;2023-01-26T00:57:02;64.50;;;23.80;;
8825;SDS011;4449;50.872;4.714;2023-01-26T00:59:31;72.20;;;24.85;;
8825;SDS011;4449;50.872;4.714;2023-01-26T01:01:59;64.78;;;22.90;;
8825;SDS011;4449;50.872;4.714;2023-01-26T01:04:27;59.53;;;23.02;;
8825;SDS011;4449;50.872;4.714;2023-01-26T01:06:55;66.93;;;25.50;;
8825;SDS011;4449;50.872;4.714;2023-01-26T01:09:23;66.68;;;23.25;;
8825;SDS011;4449;50.872;4.714;2023-01-26T01:11:51;58.85;;;21.35;;
8825;SDS011;4449;50.872;4.714;2023-01-26T01:14:19;67.38;;;23.60;;
8825;SDS011;4449;50.872;4.714;2023-01-26T01:16:48;59.40;;;22.95;;
8825;SDS011;4449;50.872;4.714;2023-01-26T01:19:16;60.38;;;22.65;;
8825;SDS011;4449;50.872;4.714;2023-01-26T01:21:44;66.32;;;24.02;;
8825;SDS011;4449;50.872;4.714;2023-01-26T01:24:12;61.83;;;24.02;;
8825;SDS011;4449;50.872;4.714;2023-01-26T01:26:40;59.95;;;23.70;;
8825;SDS011;4449;50.872;4.714;2023-01-26T01:29:08;58.55;;;23.40;;
8825;SDS011;4449;50.872;4.714;2023-01-26T01:31:38;64.07;;;25.20;;
8825;SDS011;4449;50.872;4.714;2023-01-26T01:34:09;64.05;;;24.08;;
8825;SDS011;4449;50.872;4.714;2023-01-26T01:36:36;63.17;;;24.17;;
8825;SDS011;4449;50.872;4.714;2023-01-26T01:39:04;58.97;;;21.23;;
8825;SDS011;4449;50.872;4.714;2023-01-26T01:41:32;59.92;;;22.55;;
8825;SDS011;4449;50.872;4.714;2023-01-26T01:44:16;65.88;;;24.10;;
8825;SDS011;4449;50.872;4.714;2023-01-26T01:46:51;64.75;;;23.20;;
8825;SDS011;4449;50.872;4.714;2023-01-26T01:49:21;68.13;;;23.92;;
8825;SDS011;4449;50.872;4.714;2023-01-26T01:51:51;63.55;;;24.48;;
8825;SDS011;4449;50.872;4.714;2023-01-26T01:54:22;68.00;;;23.23;;
8825;SDS011;4449;50.872;4.714;2023-01-26T01:56:52;70.43;;;24.58;;
8825;SDS011;4449;50.872;4.714;2023-01-26T01:59:22;66.47;;;23.60;;
8825;SDS011;4449;50.872;4.714;2023-01-26T02:01:50;58.15;;;22.88;;
8825;SDS011;4449;50.872;4.714;2023-01-26T02:04:19;67.18;;;22.88;;
8825;SDS011;4449;50.872;4.714;2023-01-26T02:06:50;72.18;;;25.55;;
8825;SDS011;4449;50.872;4.714;2023-01-26T02:09:19;60.35;;;23.38;;
8825;SDS011;4449;50.872;4.714;2023-01-26T02:12:06;66.25;;;23.00;;
8825;SDS011;4449;50.872;4.714;2023-01-26T02:14:35;62.55;;;23.02;;
8825;SDS011;4449;50.872;4.714;2023-01-26T02:17:03;59.70;;;24.23;;
8825;SDS011;4449;50.872;4.714;2023-01-26T02:19:33;63.17;;;23.83;;
8825;SDS011;4449;50.872;4.714;2023-01-26T02:22:06;73.50;;;26.98;;
8825;SDS011;4449;50.872;4.714;2023-01-26T02:24:37;66.05;;;24.98;;
8825;SDS011;4449;50.872;4.714;2023-01-26T02:27:08;58.90;;;22.90;;
8825;SDS011;4449;50.872;4.714;2023-01-26T02:29:35;71.72;;;23.80;;
8825;SDS011;4449;50.872;4.714;2023-01-26T02:32:04;60.08;;;24.08;;
8825;SDS011;4449;50.872;4.714;2023-01-26T02:34:31;69.20;;;24.63;;
8825;SDS011;4449;50.872;4.714;2023-01-26T02:36:59;68.32;;;24.67;;
8825;SDS011;4449;50.872;4.714;2023-01-26T02:39:33;67.70;;;25.55;;
8825;SDS011;4449;50.872;4.714;2023-01-26T02:42:02;66.75;;;24.42;;
8825;SDS011;4449;50.872;4.714;2023-01-26T02:44:49;62.22;;;22.83;;
8825;SDS011;4449;50.872;4.714;2023-01-26T02:47:17;66.03;;;23.98;;
8825;SDS011;4449;50.872;4.714;2023-01-26T02:49:45;68.68;;;25.17;;
8825;SDS011;4449;50.872;4.714;2023-01-26T02:52:12;63.15;;;23.27;;
8825;SDS011;4449;50.872;4.714;2023-01-26T02:54:40;60.13;;;22.98;;
8825;SDS011;4449;50.872;4.714;2023-01-26T02:57:26;67.70;;;23.25;;
8825;SDS011;4449;50.872;4.714;2023-01-26T02:59:55;59.58;;;23.50;;
8825;SDS011;4449;50.872;4.714;2023-01-26T03:02:23;65.30;;;21.80;;
8825;SDS011;4449;50.872;4.714;2023-01-26T03:04:50;69.95;;;23.95;;
8825;SDS011;4449;50.872;4.714;2023-01-26T03:07:18;60.75;;;22.27;;
8825;SDS011;4449;50.872;4.714;2023-01-26T03:09:46;60.77;;;23.17;;
8825;SDS011;4449;50.872;4.714;2023-01-26T03:12:14;58.10;;;23.38;;
8825;SDS011;4449;50.872;4.714;2023-01-26T03:14:42;60.95;;;22.27;;
8825;SDS011;4449;50.872;4.714;2023-01-26T03:17:11;57.00;;;22.80;;
8825;SDS011;4449;50.872;4.714;2023-01-26T03:19:39;61.53;;;23.10;;
8825;SDS011;4449;50.872;4.714;2023-01-26T03:22:24;55.38;;;21.67;;
8825;SDS011;4449;50.872;4.714;2023-01-26T03:25:09;61.47;;;23.27;;
8825;SDS011;4449;50.872;4.714;2023-01-26T03:27:54;58.97;;;22.73;;
8825;SDS011;4449;50.872;4.714;2023-01-26T03:30:21;56.60;;;22.13;;
8825;SDS011;4449;50.872;4.714;2023-01-26T03:32:50;57.77;;;23.83;;
8825;SDS011;4449;50.872;4.714;2023-01-26T03:35:18;62.00;;;23.53;;
8825;SDS011;4449;50.872;4.714;2023-01-26T03:37:47;63.10;;;22.90;;
8825;SDS011;4449;50.872;4.714;2023-01-26T03:40:18;56.17;;;20.77;;
8825;SDS011;4449;50.872;4.714;2023-01-26T03:43:06;48.47;;;20.87;;
8825;SDS011;4449;50.872;4.714;2023-01-26T03:45:51;52.60;;;21.30;;
8825;SDS011;4449;50.872;4.714;2023-01-26T03:48:37;59.73;;;22.93;;
8825;SDS011;4449;50.872;4.714;2023-01-26T03:51:22;51.70;;;20.95;;
8825;SDS011;4449;50.872;4.714;2023-01-26T03:54:07;62.13;;;21.20;;
8825;SDS011;4449;50.872;4.714;2023-01-26T03:56:53;53.13;;;22.80;;
8825;SDS011;4449;50.872;4.714;2023-01-26T03:59:20;53.83;;;22.20;;
8825;SDS011;4449;50.872;4.714;2023-01-26T04:02:02;54.03;;;21.30;;
8825;SDS011;4449;50.872;4.714;2023-01-26T04:04:49;62.88;;;23.48;;
8825;SDS011;4449;50.872;4.714;2023-01-26T04:07:34;56.85;;;22.95;;
8825;SDS011;4449;50.872;4.714;2023-01-26T04:10:19;60.13;;;23.60;;
8825;SDS011;4449;50.872;4.714;2023-01-26T04:12:46;60.30;;;23.17;;
8825;SDS011;4449;50.872;4.714;2023-01-26T04:15:32;58.57;;;22.10;;
8825;SDS011;4449;50.872;4.714;2023-01-26T04:18:18;58.97;;;23.10;;
8825;SDS011;4449;50.872;4.714;2023-01-26T04:21:05;55.17;;;22.13;;
8825;SDS011;4449;50.872;4.714;2023-01-26T04:23:51;58.80;;;23.97;;
8825;SDS011;4449;50.872;4.714;2023-01-26T04:26:20;63.63;;;23.40;;
8825;SDS011;4449;50.872;4.714;2023-01-26T04:28:48;68.23;;;23.43;;
8825;SDS011;4449;50.872;4.714;2023-01-26T04:31:16;63.17;;;23.57;;
8825;SDS011;4449;50.872;4.714;2023-01-26T04:33:44;53.33;;;22.90;;
8825;SDS011;4449;50.872;4.714;2023-01-26T04:36:13;60.07;;;23.23;;
8825;SDS011;4449;50.872;4.714;2023-01-26T04:38:40;57.65;;;22.98;;
8825;SDS011;4449;50.872;4.714;2023-01-26T04:41:08;58.13;;;22.83;;
8825;SDS011;4449;50.872;4.714;2023-01-26T04:43:36;60.20;;;23.52;;
8825;SDS011;4449;50.872;4.714;2023-01-26T04:46:04;56.57;;;23.53;;
8825;SDS011;4449;50.872;4.714;2023-01-26T04:48:32;60.25;;;22.90;;
8825;SDS011;4449;50.872;4.714;2023-01-26T04:51:01;53.75;;;22.13;;
8825;SDS011;4449;50.872;4.714;2023-01-26T04:53:31;53.45;;;21.45;;
8825;SDS011;4449;50.872;4.714;2023-01-26T04:55:59;58.03;;;23.45;;
8825;SDS011;4449;50.872;4.714;2023-01-26T04:58:27;61.92;;;21.65;;
8825;SDS011;4449;50.872;4.714;2023-01-26T05:00:55;55.72;;;23.38;;
8825;SDS011;4449;50.872;4.714;2023-01-26T05:03:23;63.17;;;22.83;;
8825;SDS011;4449;50.872;4.714;2023-01-26T05:05:52;56.08;;;21.55;;
8825;SDS011;4449;50.872;4.714;2023-01-26T05:08:20;57.50;;;23.25;;
8825;SDS011;4449;50.872;4.714;2023-01-26T05:10:50;71.93;;;23.75;;
8825;SDS011;4449;50.872;4.714;2023-01-26T05:13:17;57.73;;;21.87;;
8825;SDS011;4449;50.872;4.714;2023-01-26T05:15:45;52.10;;;21.73;;
8825;SDS011;4449;50.872;4.714;2023-01-26T05:18:13;63.70;;;23.43;;
8825;SDS011;4449;50.872;4.714;2023-01-26T05:20:41;57.47;;;21.03;;
8825;SDS011;4449;50.872;4.714;2023-01-26T05:23:08;61.05;;;22.27;;
8825;SDS011;4449;50.872;4.714;2023-01-26T05:25:36;62.33;;;24.40;;
8825;SDS011;4449;50.872;4.714;2023-01-26T05:28:05;60.73;;;23.03;;
8825;SDS011;4449;50.872;4.714;2023-01-26T05:30:33;56.80;;;22.50;;
8825;SDS011;4449;50.872;4.714;2023-01-26T05:33:01;62.95;;;23.92;;
8825;SDS011;4449;50.872;4.714;2023-01-26T05:35:28;59.80;;;22.03;;
8825;SDS011;4449;50.872;4.714;2023-01-26T05:37:56;53.13;;;21.37;;
8825;SDS011;4449;50.872;4.714;2023-01-26T05:40:24;52.67;;;21.47;;
8825;SDS011;4449;50.872;4.714;2023-01-26T05:42:52;49.27;;;20.87;;
8825;SDS011;4449;50.872;4.714;2023-01-26T05:45:21;54.57;;;20.10;;
8825;SDS011;4449;50.872;4.714;2023-01-26T05:47:49;54.93;;;23.50;;
8825;SDS011;4449;50.872;4.714;2023-01-26T05:50:17;49.73;;;20.60;;
8825;SDS011;4449;50.872;4.714;2023-01-26T05:52:45;47.20;;;21.70;;
8825;SDS011;4449;50.872;4.714;2023-01-26T05:55:14;51.40;;;20.77;;
8825;SDS011;4449;50.872;4.714;2023-01-26T05:57:42;61.20;;;21.70;;
8825;SDS011;4449;50.872;4.714;2023-01-26T06:00:10;49.30;;;20.60;;
8825;SDS011;4449;50.872;4.714;2023-01-26T06:02:40;51.93;;;20.63;;
8825;SDS011;4449;50.872;4.714;2023-01-26T06:05:08;52.53;;;20.67;;
8825;SDS011;4449;50.872;4.714;2023-01-26T06:07:36;43.70;;;20.50;;
8825;SDS011;4449;50.872;4.714;2023-01-26T06:10:04;55.80;;;21.57;;
8825;SDS011;4449;50.872;4.714;2023-01-26T06:12:31;52.43;;;20.10;;
8825;SDS011;4449;50.872;4.714;2023-01-26T06:15:03;48.43;;;20.97;;
8825;SDS011;4449;50.872;4.714;2023-01-26T06:17:31;50.67;;;19.30;;
8825;SDS011;4449;50.872;4.714;2023-01-26T06:20:00;47.20;;;19.83;;
8825;SDS011;4449;50.872;4.714;2023-01-26T06:22:28;46.37;;;19.07;;
8825;SDS011;4449;50.872;4.714;2023-01-26T06:24:56;40.27;;;17.73;;
8825;SDS011;4449;50.872;4.714;2023-01-26T06:27:23;46.07;;;19.03;;
8825;SDS011;4449;50.872;4.714;2023-01-26T06:29:51;48.45;;;21.48;;
8825;SDS011;4449;50.872;4.714;2023-01-26T06:32:19;44.07;;;18.57;;
8825;SDS011;4449;50.872;4.714;2023-01-26T06:34:47;44.23;;;19.63;;
8825;SDS011;4449;50.872;4.714;2023-01-26T06:37:18;39.23;;;17.23;;
8825;SDS011;4449;50.872;4.714;2023-01-26T06:39:46;42.00;;;18.13;;
8825;SDS011;4449;50.872;4.714;2023-01-26T06:42:14;41.70;;;16.98;;
8825;SDS011;4449;50.872;4.714;2023-01-26T06:44:41;36.90;;;16.77;;
8825;SDS011;4449;50.872;4.714;2023-01-26T06:47:09;37.27;;;15.70;;
8825;SDS011;4449;50.872;4.714;2023-01-26T06:49:39;40.80;;;16.73;;
8825;SDS011;4449;50.872;4.714;2023-01-26T06:52:20;39.57;;;18.03;;
8825;SDS011;4449;50.872;4.714;2023-01-26T06:54:51;37.37;;;16.70;;
8825;SDS011;4449;50.872;4.714;2023-01-26T06:57:19;43.73;;;17.60;;
8825;SDS011;4449;50.872;4.714;2023-01-26T06:59:47;37.50;;;16.73;;
8825;SDS011;4449;50.872;4.714;2023-01-26T07:02:16;38.70;;;15.93;;
8825;SDS011;4449;50.872;4.714;2023-01-26T07:04:44;39.90;;;16.53;;
8825;SDS011;4449;50.872;4.714;2023-01-26T07:07:12;42.43;;;18.27;;
8825;SDS011;4449;50.872;4.714;2023-01-26T07:09:41;47.30;;;17.53;;
8825;SDS011;4449;50.872;4.714;2023-01-26T07:12:09;41.63;;;17.57;;
8825;SDS011;4449;50.872;4.714;2023-01-26T07:14:36;40.50;;;18.47;;
8825;SDS011;4449;50.872;4.714;2023-01-26T07:17:04;35.30;;;16.57;;
8825;SDS011;4449;50.872;4.714;2023-01-26T07:19:32;43.97;;;17.43;;
8825;SDS011;4449;50.872;4.714;2023-01-26T07:21:59;40.63;;;16.73;;
8825;SDS011;4449;50.872;4.714;2023-01-26T07:24:27;39.53;;;16.33;;
8825;SDS011;4449;50.872;4.714;2023-01-26T07:26:57;37.70;;;17.03;;
8825;SDS011;4449;50.872;4.714;2023-01-26T07:29:24;39.60;;;16.70;;
8825;SDS011;4449;50.872;4.714;2023-01-26T07:31:52;39.40;;;15.97;;
8825;SDS011;4449;50.872;4.714;2023-01-26T07:34:20;39.20;;;17.37;;
8825;SDS011;4449;50.872;4.714;2023-01-26T07:36:50;40.53;;;16.73;;
8825;SDS011;4449;50.872;4.714;2023-01-26T07:39:18;36.67;;;16.90;;
8825;SDS011;4449;50.872;4.714;2023-01-26T07:41:46;45.40;;;17.30;;
8825;SDS011;4449;50.872;4.714;2023-01-26T07:44:15;38.77;;;16.83;;
8825;SDS011;4449;50.872;4.714;2023-01-26T07:46:42;37.20;;;16.87;;
8825;SDS011;4449;50.872;4.714;2023-01-26T07:49:10;33.80;;;15.27;;
8825;SDS011;4449;50.872;4.714;2023-01-26T07:51:38;40.47;;;16.10;;
8825;SDS011;4449;50.872;4.714;2023-01-26T07:54:06;36.63;;;15.50;;
8825;SDS011;4449;50.872;4.714;2023-01-26T07:56:34;34.40;;;14.87;;
8825;SDS011;4449;50.872;4.714;2023-01-26T07:59:01;32.30;;;15.30;;
8825;SDS011;4449;50.872;4.714;2023-01-26T08:01:31;31.73;;;14.57;;
8825;SDS011;4449;50.872;4.714;2023-01-26T08:03:58;34.67;;;15.20;;
8825;SDS011;4449;50.872;4.714;2023-01-26T08:06:26;34.97;;;14.17;;
8825;SDS011;4449;50.872;4.714;2023-01-26T08:08:54;37.13;;;15.00;;
8825;SDS011;4449;50.872;4.714;2023-01-26T08:11:22;30.50;;;14.50;;
8825;SDS011;4449;50.872;4.714;2023-01-26T08:13:51;38.03;;;15.63;;
8825;SDS011;4449;50.872;4.714;2023-01-26T08:16:19;30.53;;;13.57;;
8825;SDS011;4449;50.872;4.714;2023-01-26T08:18:48;29.83;;;13.47;;
8825;SDS011;4449;50.872;4.714;2023-01-26T08:21:17;31.97;;;13.47;;
8825;SDS011;4449;50.872;4.714;2023-01-26T08:23:47;25.50;;;12.17;;
8825;SDS011;4449;50.872;4.714;2023-01-26T08:26:15;25.17;;;12.20;;
8825;SDS011;4449;50.872;4.714;2023-01-26T08:28:43;28.90;;;11.53;;
8825;SDS011;4449;50.872;4.714;2023-01-26T08:31:11;24.00;;;11.00;;
8825;SDS011;4449;50.872;4.714;2023-01-26T08:33:42;26.97;;;11.90;;
8825;SDS011;4449;50.872;4.714;2023-01-26T08:36:12;27.07;;;11.77;;
8825;SDS011;4449;50.872;4.714;2023-01-26T08:38:40;25.37;;;12.93;;
8825;SDS011;4449;50.872;4.714;2023-01-26T08:41:08;29.83;;;12.13;;
8825;SDS011;4449;50.872;4.714;2023-01-26T08:43:36;24.93;;;12.20;;
8825;SDS011;4449;50.872;4.714;2023-01-26T08:46:04;24.33;;;11.43;;
8825;SDS011;4449;50.872;4.714;2023-01-26T08:48:32;27.83;;;13.03;;
8825;SDS011;4449;50.872;4.714;2023-01-26T08:51:00;23.10;;;11.63;;
8825;SDS011;4449;50.872;4.714;2023-01-26T08:53:30;24.73;;;11.97;;
8825;SDS011;4449;50.872;4.714;2023-01-26T08:55:59;32.60;;;12.77;;
8825;SDS011;4449;50.872;4.714;2023-01-26T08:58:27;24.87;;;11.23;;
8825;SDS011;4449;50.872;4.714;2023-01-26T09:00:55;25.00;;;11.30;;
8825;SDS011;4449;50.872;4.714;2023-01-26T09:03:23;21.83;;;11.17;;
8825;SDS011;4449;50.872;4.714;2023-01-26T09:05:51;21.10;;;10.40;;
8825;SDS011;4449;50.872;4.714;2023-01-26T09:08:19;22.40;;;10.40;;
8825;SDS011;4449;50.872;4.714;2023-01-26T09:10:49;20.30;;;10.33;;
8825;SDS011;4449;50.872;4.714;2023-01-26T09:13:17;22.33;;;10.80;;
8825;SDS011;4449;50.872;4.714;2023-01-26T09:15:44;16.87;;;9.37;;
8825;SDS011;4449;50.872;4.714;2023-01-26T09:18:12;18.73;;;10.23;;
8825;SDS011;4449;50.872;4.714;2023-01-26T09:20:40;21.20;;;10.23;;
8825;SDS011;4449;50.872;4.714;2023-01-26T09:23:08;20.77;;;10.27;;
8825;SDS011;4449;50.872;4.714;2023-01-26T09:25:37;17.33;;;9.73;;
8825;SDS011;4449;50.872;4.714;2023-01-26T09:28:06;16.77;;;9.33;;
8825;SDS011;4449;50.872;4.714;2023-01-26T09:30:34;16.73;;;9.57;;
8825;SDS011;4449;50.872;4.714;2023-01-26T09:33:02;16.90;;;8.77;;
8825;SDS011;4449;50.872;4.714;2023-01-26T09:35:31;17.40;;;9.57;;
8825;SDS011;4449;50.872;4.714;2023-01-26T09:37:59;21.23;;;9.90;;
8825;SDS011;4449;50.872;4.714;2023-01-26T09:40:29;17.80;;;8.93;;
8825;SDS011;4449;50.872;4.714;2023-01-26T10:41:58;17.50;;;8.30;;
8825;SDS011;4449;50.872;4.714;2023-01-26T10:44:29;16.93;;;8.37;;
8825;SDS011;4449;50.872;4.714;2023-01-26T10:47:02;17.37;;;8.20;;
8825;SDS011;4449;50.872;4.714;2023-01-26T10:49:30;16.83;;;9.07;;
8825;SDS011;4449;50.872;4.714;2023-01-26T10:52:05;18.97;;;8.87;;
8825;SDS011;4449;50.872;4.714;2023-01-26T10:54:33;23.50;;;12.00;;
8825;SDS011;4449;50.872;4.714;2023-01-26T10:57:10;16.70;;;9.10;;
8825;SDS011;4449;50.872;4.714;2023-01-26T10:59:41;19.70;;;9.60;;
8825;SDS011;4449;50.872;4.714;2023-01-26T11:02:20;19.93;;;9.87;;
8825;SDS011;4449;50.872;4.714;2023-01-26T11:05:02;26.67;;;10.93;;
8825;SDS011;4449;50.872;4.714;2023-01-26T11:07:31;20.57;;;9.10;;
8825;SDS011;4449;50.872;4.714;2023-01-26T11:12:43;20.97;;;10.57;;
8825;SDS011;4449;50.872;4.714;2023-01-26T11:15:15;23.03;;;10.70;;
8825;SDS011;4449;50.872;4.714;2023-01-26T11:17:45;21.40;;;10.47;;
8825;SDS011;4449;50.872;4.714;2023-01-26T11:20:29;30.23;;;10.93;;
8825;SDS011;4449;50.872;4.714;2023-01-26T11:23:03;27.67;;;11.87;;
8825;SDS011;4449;50.872;4.714;2023-01-26T11:25:37;24.47;;;11.03;;
8825;SDS011;4449;50.872;4.714;2023-01-26T11:28:17;23.87;;;11.27;;
8825;SDS011;4449;50.872;4.714;2023-01-26T11:30:54;29.17;;;12.03;;
8825;SDS011;4449;50.872;4.714;2023-01-26T11:33:28;27.23;;;11.93;;
8825;SDS011;4449;50.872;4.714;2023-01-26T11:36:01;25.10;;;11.80;;
8825;SDS011;4449;50.872;4.714;2023-01-26T11:38:34;22.83;;;10.40;;
8825;SDS011;4449;50.872;4.714;2023-01-26T11:41:07;23.80;;;11.80;;
8825;SDS011;4449;50.872;4.714;2023-01-26T11:46:24;25.23;;;11.13;;
8825;SDS011;4449;50.872;4.714;2023-01-26T11:49:00;24.43;;;11.07;;
8825;SDS011;4449;50.872;4.714;2023-01-26T11:51:34;21.63;;;10.17;;
8825;SDS011;4449;50.872;4.714;2023-01-26T11:56:47;31.93;;;11.67;;
8825;SDS011;4449;50.872;4.714;2023-01-26T11:59:16;22.73;;;11.00;;
8825;SDS011;4449;50.872;4.714;2023-01-26T12:01:47;30.50;;;11.70;;
8825;SDS011;4449;50.872;4.714;2023-01-26T12:04:17;33.47;;;13.13;;
8825;SDS011;4449;50.872;4.714;2023-01-26T12:06:45;30.50;;;12.87;;
8825;SDS011;4449;50.872;4.714;2023-01-26T12:09:17;34.07;;;12.97;;
8825;SDS011;4449;50.872;4.714;2023-01-26T12:11:48;37.17;;;13.70;;
8825;SDS011;4449;50.872;4.714;2023-01-26T12:14:20;37.37;;;14.40;;
8825;SDS011;4449;50.872;4.714;2023-01-26T12:16:56;31.77;;;13.57;;
8825;SDS011;4449;50.872;4.714;2023-01-26T12:19:30;32.97;;;13.10;;
8825;SDS011;4449;50.872;4.714;2023-01-26T12:22:02;42.70;;;14.63;;
8825;SDS011;4449;50.872;4.714;2023-01-26T12:24:33;40.87;;;14.87;;
8825;SDS011;4449;50.872;4.714;2023-01-26T12:27:01;47.80;;;15.67;;
8825;SDS011;4449;50.872;4.714;2023-01-26T12:29:33;49.07;;;16.70;;
8825;SDS011;4449;50.872;4.714;2023-01-26T12:32:07;56.37;;;15.07;;
8825;SDS011;4449;50.872;4.714;2023-01-26T12:34:36;45.43;;;16.07;;
8825;SDS011;4449;50.872;4.714;2023-01-26T12:37:17;58.37;;;17.67;;
8825;SDS011;4449;50.872;4.714;2023-01-26T12:39:49;41.17;;;16.43;;
8825;SDS011;4449;50.872;4.714;2023-01-26T12:42:22;47.37;;;16.43;;
8825;SDS011;4449;50.872;4.714;2023-01-26T12:44:54;45.43;;;16.03;;
8825;SDS011;4449;50.872;4.714;2023-01-26T12:47:27;50.40;;;16.57;;
8825;SDS011;4449;50.872;4.714;2023-01-26T12:49:57;40.63;;;17.07;;
8825;SDS011;4449;50.872;4.714;2023-01-26T12:52:29;55.13;;;17.47;;
8825;SDS011;4449;50.872;4.714;2023-01-26T12:54:59;49.87;;;17.30;;
8825;SDS011;4449;50.872;4.714;2023-01-26T12:57:30;52.60;;;17.57;;
8825;SDS011;4449;50.872;4.714;2023-01-26T13:00:02;61.23;;;18.57;;
8825;SDS011;4449;50.872;4.714;2023-01-26T13:02:32;43.00;;;18.23;;
8825;SDS011;4449;50.872;4.714;2023-01-26T13:05:01;51.03;;;18.07;;
8825;SDS011;4449;50.872;4.714;2023-01-26T13:07:31;50.60;;;18.53;;
8825;SDS011;4449;50.872;4.714;2023-01-26T13:12:48;45.47;;;17.40;;
8825;SDS011;4449;50.872;4.714;2023-01-26T13:15:17;44.27;;;17.87;;
8825;SDS011;4449;50.872;4.714;2023-01-26T13:17:51;42.80;;;15.47;;
8825;SDS011;4449;50.872;4.714;2023-01-26T13:23:08;48.90;;;17.97;;
8825;SDS011;4449;50.872;4.714;2023-01-26T13:26:08;43.80;;;17.90;;
8825;SDS011;4449;50.872;4.714;2023-01-26T13:28:39;48.13;;;17.60;;
8825;SDS011;4449;50.872;4.714;2023-01-26T13:31:08;44.33;;;18.67;;
8825;SDS011;4449;50.872;4.714;2023-01-26T13:33:38;46.23;;;17.13;;
8825;SDS011;4449;50.872;4.714;2023-01-26T13:36:09;53.53;;;16.40;;
8825;SDS011;4449;50.872;4.714;2023-01-26T13:38:39;51.83;;;15.83;;
8825;SDS011;4449;50.872;4.714;2023-01-26T13:41:08;39.67;;;16.03;;
8825;SDS011;4449;50.872;4.714;2023-01-26T13:43:39;46.57;;;15.70;;
8825;SDS011;4449;50.872;4.714;2023-01-26T13:46:15;51.50;;;16.67;;
8825;SDS011;4449;50.872;4.714;2023-01-26T13:48:46;32.50;;;15.03;;
8825;SDS011;4449;50.872;4.714;2023-01-26T13:51:15;48.90;;;17.27;;
8825;SDS011;4449;50.872;4.714;2023-01-26T13:53:46;49.13;;;16.57;;
8825;SDS011;4449;50.872;4.714;2023-01-26T13:56:21;37.30;;;14.87;;
8825;SDS011;4449;50.872;4.714;2023-01-26T13:58:49;41.57;;;14.23;;
8825;SDS011;4449;50.872;4.714;2023-01-26T14:01:18;40.70;;;15.43;;
8825;SDS011;4449;50.872;4.714;2023-01-26T14:03:47;37.63;;;14.03;;
8825;SDS011;4449;50.872;4.714;2023-01-26T14:06:15;40.53;;;14.40;;
8825;SDS011;4449;50.872;4.714;2023-01-26T14:08:47;33.27;;;14.63;;
8825;SDS011;4449;50.872;4.714;2023-01-26T14:11:17;33.47;;;13.70;;
8825;SDS011;4449;50.872;4.714;2023-01-26T14:13:46;28.93;;;12.60;;
8825;SDS011;4449;50.872;4.714;2023-01-26T14:16:19;33.60;;;12.90;;
8825;SDS011;4449;50.872;4.714;2023-01-26T14:18:49;36.43;;;13.00;;
8825;SDS011;4449;50.872;4.714;2023-01-26T14:21:18;31.77;;;13.40;;
8825;SDS011;4449;50.872;4.714;2023-01-26T14:23:52;34.37;;;12.73;;
8825;SDS011;4449;50.872;4.714;2023-01-26T14:26:20;37.60;;;12.87;;
8825;SDS011;4449;50.872;4.714;2023-01-26T14:28:50;34.37;;;11.70;;
8825;SDS011;4449;50.872;4.714;2023-01-26T14:31:18;31.00;;;12.73;;
8825;SDS011;4449;50.872;4.714;2023-01-26T14:33:47;29.77;;;11.53;;
8825;SDS011;4449;50.872;4.714;2023-01-26T14:36:18;28.93;;;10.60;;
8825;SDS011;4449;50.872;4.714;2023-01-26T14:38:46;33.93;;;12.13;;
8825;SDS011;4449;50.872;4.714;2023-01-26T14:41:15;26.63;;;10.63;;
8825;SDS011;4449;50.872;4.714;2023-01-26T14:43:43;36.60;;;11.43;;
8825;SDS011;4449;50.872;4.714;2023-01-26T14:46:14;23.33;;;10.00;;
8825;SDS011;4449;50.872;4.714;2023-01-26T14:48:44;26.57;;;9.90;;
8825;SDS011;4449;50.872;4.714;2023-01-26T14:51:15;26.00;;;10.03;;
8825;SDS011;4449;50.872;4.714;2023-01-26T14:53:50;32.30;;;10.87;;
8825;SDS011;4449;50.872;4.714;2023-01-26T14:56:18;24.13;;;10.40;;
8825;SDS011;4449;50.872;4.714;2023-01-26T14:58:48;28.40;;;9.97;;
8825;SDS011;4449;50.872;4.714;2023-01-26T15:01:18;30.47;;;9.83;;
8825;SDS011;4449;50.872;4.714;2023-01-26T15:03:47;35.43;;;9.03;;
8825;SDS011;4449;50.872;4.714;2023-01-26T15:06:17;22.30;;;9.03;;
8825;SDS011;4449;50.872;4.714;2023-01-26T15:08:54;22.80;;;8.47;;
8825;SDS011;4449;50.872;4.714;2023-01-26T15:11:31;21.20;;;6.17;;
8825;SDS011;4449;50.872;4.714;2023-01-26T15:14:30;14.83;;;3.73;;
8825;SDS011;4449;50.872;4.714;2023-01-26T15:16:58;23.17;;;5.53;;
8825;SDS011;4449;50.872;4.714;2023-01-26T15:19:31;13.27;;;3.77;;
8825;SDS011;4449;50.872;4.714;2023-01-26T15:21:59;16.40;;;3.33;;
8825;SDS011;4449;50.872;4.714;2023-01-26T15:24:28;9.80;;;4.17;;
8825;SDS011;4449;50.872;4.714;2023-01-26T15:27:03;19.00;;;4.20;;
8825;SDS011;4449;50.872;4.714;2023-01-26T15:29:31;16.33;;;4.00;;
8825;SDS011;4449;50.872;4.714;2023-01-26T15:32:00;13.67;;;3.33;;
8825;SDS011;4449;50.872;4.714;2023-01-26T15:34:29;14.27;;;3.30;;
8825;SDS011;4449;50.872;4.714;2023-01-26T15:36:57;9.03;;;2.90;;
8825;SDS011;4449;50.872;4.714;2023-01-26T15:39:25;15.53;;;2.93;;
8825;SDS011;4449;50.872;4.714;2023-01-26T15:42:06;22.20;;;3.77;;
8825;SDS011;4449;50.872;4.714;2023-01-26T15:44:37;12.10;;;3.60;;
8825;SDS011;4449;50.872;4.714;2023-01-26T15:47:07;14.20;;;3.23;;
8825;SDS011;4449;50.872;4.714;2023-01-26T15:49:36;15.53;;;3.77;;
8825;SDS011;4449;50.872;4.714;2023-01-26T15:52:08;10.63;;;3.60;;
8825;SDS011;4449;50.872;4.714;2023-01-26T15:54:36;12.33;;;4.07;;
8825;SDS011;4449;50.872;4.714;2023-01-26T15:57:06;12.03;;;4.47;;
8825;SDS011;4449;50.872;4.714;2023-01-26T15:59:33;22.87;;;4.73;;
8825;SDS011;4449;50.872;4.714;2023-01-26T16:02:01;10.00;;;4.63;;
8825;SDS011;4449;50.872;4.714;2023-01-26T16:04:29;12.40;;;3.90;;
8825;SDS011;4449;50.872;4.714;2023-01-26T16:06:57;14.17;;;3.10;;
8825;SDS011;4449;50.872;4.714;2023-01-26T16:09:25;12.00;;;3.80;;
8825;SDS011;4449;50.872;4.714;2023-01-26T16:11:52;13.27;;;3.03;;
8825;SDS011;4449;50.872;4.714;2023-01-26T16:14:21;8.33;;;3.40;;
8825;SDS011;4449;50.872;4.714;2023-01-26T16:16:49;12.23;;;3.23;;
8825;SDS011;4449;50.872;4.714;2023-01-26T16:19:17;18.83;;;4.63;;
8825;SDS011;4449;50.872;4.714;2023-01-26T16:21:45;12.57;;;4.30;;